Airfield :
LOGIN :

Register | Disclaimer

   EN    FR    IT 

 










Legend :    VFR   Marginal VFR   IFR   Intensive IFR   Very Intensive IFR
Visi :
Ceiling :
>= 8 km
>= 3000ft
5 to 8 km
1000 to 3000 ft
1500m to 5 km
500 to 1000 ft
800 to 1500m
200 to 500 ft
< 800m
< 200 ft
Symbols :   Thunderstorms  Fog  Heavy snow  Heavy precipitations  Wind > 20 kt
SIGMETs :     Misc.  Thunderstorms  Icing  Turbulence  Mountain Waves  Volcanic Ashes






- Airport Elevation : 1213 ft
- IATA code : SCQ


LEST - Santiago de Compostela

CURRENT METAR :
  • 121730Z 23008KT 170V280 9999 SCT025 BKN039 13/08 Q1020 NOSIG

EXPIRED METARs :
  • 121700Z 25008KT 210V300 9999 SCT025 SCT046 13/07 Q1020 NOSIG
  • 121630Z 27009G19KT 210V310 9999 SCT023 SCT046 13/07 Q1020 NOSIG
  • 121600Z 26010KT 210V320 9999 SCT026 SCT043 13/07 Q1020 NOSIG
  • 121530Z 26009KT 200V320 9999 FEW028 BKN044 14/06 Q1020 NOSIG
  • 121500Z 28008KT 240V320 9999 FEW026 BKN044 14/06 Q1020 NOSIG

TAF TAF LEST
Valid from the 12 at 18:00 until the 13 at 18:00 UTC


121700Z 1218/1318 23008KT 9999 FEW010 BKN020 TX14/1315Z TN10/1303Z
TEMPO 1221/1318 3000 -RA BR BKN010
PROB40
TEMPO 1221/1312 1500 RA SHRA BKN005 SCT030TCU
PROB40
TEMPO 1221/1312 0800 RA FG BKN002
TEMPO 1309/1318 27015G25KT



MET'MAP, your aeronautical weather chart ! - Copyright ORBIFLY December 2007 - Disclaimer

ORBIFLY MET'MAP TEAM :

Programming & Development : Alexandra Zaïnal
Concept & original design : Baudouin d'Aumeries
Assistance for programming : Marc-Olivier Méhu
Technical & hardware support : Manuel Goepfert

Contact : metmap@orbifly.com




SOURCES & CREDITS :

   NOAA